sensor_id;sensor_type;location;lat;lon;timestamp;temperature;humidity
7411;DHT22;3747;48.628;9.058;2023-08-07T00:01:39;9.90;99.90
7411;DHT22;3747;48.628;9.058;2023-08-07T00:04:05;9.90;99.90
7411;DHT22;3747;48.628;9.058;2023-08-07T00:06:32;9.90;99.90
7411;DHT22;3747;48.628;9.058;2023-08-07T00:09:00;9.90;99.90
7411;DHT22;3747;48.628;9.058;2023-08-07T00:11:27;9.80;99.90
7411;DHT22;3747;48.628;9.058;2023-08-07T00:13:54;9.80;99.90
7411;DHT22;3747;48.628;9.058;2023-08-07T00:16:21;9.80;99.90
7411;DHT22;3747;48.628;9.058;2023-08-07T00:18:47;9.80;99.90
7411;DHT22;3747;48.628;9.058;2023-08-07T00:21:14;9.70;99.90
7411;DHT22;3747;48.628;9.058;2023-08-07T00:23:41;9.80;99.90
7411;DHT22;3747;48.628;9.058;2023-08-07T00:26:09;9.80;99.90
7411;DHT22;3747;48.628;9.058;2023-08-07T00:28:36;9.80;99.90
7411;DHT22;3747;48.628;9.058;2023-08-07T00:31:02;9.70;99.90
7411;DHT22;3747;48.628;9.058;2023-08-07T00:33:29;9.70;99.90
7411;DHT22;3747;48.628;9.058;2023-08-07T00:35:56;9.70;99.90
7411;DHT22;3747;48.628;9.058;2023-08-07T00:38:22;9.70;99.90
7411;DHT22;3747;48.628;9.058;2023-08-07T00:40:49;9.70;99.90
7411;DHT22;3747;48.628;9.058;2023-08-07T00:43:17;9.70;99.90
7411;DHT22;3747;48.628;9.058;2023-08-07T00:45:47;9.70;99.90
7411;DHT22;3747;48.628;9.058;2023-08-07T00:48:15;9.70;99.90
7411;DHT22;3747;48.628;9.058;2023-08-07T00:50:43;9.70;99.90
7411;DHT22;3747;48.628;9.058;2023-08-07T00:53:11;9.70;99.90
7411;DHT22;3747;48.628;9.058;2023-08-07T00:55:38;9.70;99.90
7411;DHT22;3747;48.628;9.058;2023-08-07T00:58:04;9.70;99.90
7411;DHT22;3747;48.628;9.058;2023-08-07T01:00:32;9.70;99.90
7411;DHT22;3747;48.628;9.058;2023-08-07T01:02:59;9.70;99.90
7411;DHT22;3747;48.628;9.058;2023-08-07T01:05:26;9.70;99.90
7411;DHT22;3747;48.628;9.058;2023-08-07T01:07:53;9.70;99.90
7411;DHT22;3747;48.628;9.058;2023-08-07T01:10:27;9.70;99.90
7411;DHT22;3747;48.628;9.058;2023-08-07T01:13:05;9.70;99.90
7411;DHT22;3747;48.628;9.058;2023-08-07T01:15:37;9.70;99.90
7411;DHT22;3747;48.628;9.058;2023-08-07T01:18:06;9.70;99.90
7411;DHT22;3747;48.628;9.058;2023-08-07T01:20:34;9.60;99.90
7411;DHT22;3747;48.628;9.058;2023-08-07T01:23:02;9.60;99.90
7411;DHT22;3747;48.628;9.058;2023-08-07T01:25:28;9.60;99.90
7411;DHT22;3747;48.628;9.058;2023-08-07T01:28:00;9.60;99.90
7411;DHT22;3747;48.628;9.058;2023-08-07T01:30:36;9.60;99.90
7411;DHT22;3747;48.628;9.058;2023-08-07T01:33:10;9.60;99.90
7411;DHT22;3747;48.628;9.058;2023-08-07T01:35:43;9.60;99.90
7411;DHT22;3747;48.628;9.058;2023-08-07T01:38:12;9.60;99.90
7411;DHT22;3747;48.628;9.058;2023-08-07T01:40:40;9.70;99.90
7411;DHT22;3747;48.628;9.058;2023-08-07T01:43:08;9.70;99.90
7411;DHT22;3747;48.628;9.058;2023-08-07T01:45:35;9.70;99.90
7411;DHT22;3747;48.628;9.058;2023-08-07T01:48:02;9.80;99.90
7411;DHT22;3747;48.628;9.058;2023-08-07T01:50:29;9.80;99.90
7411;DHT22;3747;48.628;9.058;2023-08-07T01:52:56;9.80;99.90
7411;DHT22;3747;48.628;9.058;2023-08-07T01:55:24;9.80;99.90
7411;DHT22;3747;48.628;9.058;2023-08-07T01:57:50;9.80;99.90
7411;DHT22;3747;48.628;9.058;2023-08-07T02:00:18;9.80;99.90
7411;DHT22;3747;48.628;9.058;2023-08-07T02:02:44;9.70;99.90
7411;DHT22;3747;48.628;9.058;2023-08-07T02:05:12;9.80;99.90
7411;DHT22;3747;48.628;9.058;2023-08-07T02:07:39;9.90;99.90
7411;DHT22;3747;48.628;9.058;2023-08-07T02:10:06;9.90;99.90
7411;DHT22;3747;48.628;9.058;2023-08-07T02:12:35;10.00;99.90
7411;DHT22;3747;48.628;9.058;2023-08-07T02:15:02;10.00;99.90
7411;DHT22;3747;48.628;9.058;2023-08-07T02:17:28;10.00;99.90
7411;DHT22;3747;48.628;9.058;2023-08-07T02:19:56;10.00;99.90
7411;DHT22;3747;48.628;9.058;2023-08-07T02:22:23;10.00;99.90
7411;DHT22;3747;48.628;9.058;2023-08-07T02:24:50;10.00;99.90
7411;DHT22;3747;48.628;9.058;2023-08-07T02:27:16;10.00;99.90
7411;DHT22;3747;48.628;9.058;2023-08-07T02:29:45;10.10;99.90
7411;DHT22;3747;48.628;9.058;2023-08-07T02:32:11;10.10;99.90
7411;DHT22;3747;48.628;9.058;2023-08-07T02:34:38;10.10;99.90
7411;DHT22;3747;48.628;9.058;2023-08-07T02:37:05;10.20;99.90
7411;DHT22;3747;48.628;9.058;2023-08-07T02:39:31;10.20;99.90
7411;DHT22;3747;48.628;9.058;2023-08-07T02:41:58;10.30;99.90
7411;DHT22;3747;48.628;9.058;2023-08-07T02:44:25;10.30;99.90
7411;DHT22;3747;48.628;9.058;2023-08-07T02:46:53;10.30;99.90
7411;DHT22;3747;48.628;9.058;2023-08-07T02:49:19;10.30;99.90
7411;DHT22;3747;48.628;9.058;2023-08-07T02:51:46;10.30;99.90
7411;DHT22;3747;48.628;9.058;2023-08-07T02:54:13;10.30;99.90
7411;DHT22;3747;48.628;9.058;2023-08-07T02:56:41;10.30;99.90
7411;DHT22;3747;48.628;9.058;2023-08-07T02:59:07;10.30;99.90
7411;DHT22;3747;48.628;9.058;2023-08-07T03:01:34;10.40;99.90
7411;DHT22;3747;48.628;9.058;2023-08-07T03:04:02;10.40;99.90
7411;DHT22;3747;48.628;9.058;2023-08-07T03:06:29;10.40;99.90
7411;DHT22;3747;48.628;9.058;2023-08-07T03:08:56;10.30;99.90
7411;DHT22;3747;48.628;9.058;2023-08-07T03:11:22;10.30;99.90
7411;DHT22;3747;48.628;9.058;2023-08-07T03:13:49;10.20;99.90
7411;DHT22;3747;48.628;9.058;2023-08-07T03:16:16;10.20;99.90
7411;DHT22;3747;48.628;9.058;2023-08-07T03:18:42;10.20;99.90
7411;DHT22;3747;48.628;9.058;2023-08-07T03:21:10;10.10;99.90
7411;DHT22;3747;48.628;9.058;2023-08-07T03:23:37;10.10;99.90
7411;DHT22;3747;48.628;9.058;2023-08-07T03:26:05;10.10;99.90
7411;DHT22;3747;48.628;9.058;2023-08-07T03:28:32;10.10;99.90
7411;DHT22;3747;48.628;9.058;2023-08-07T03:30:59;10.10;99.90
7411;DHT22;3747;48.628;9.058;2023-08-07T03:33:26;10.10;99.90
7411;DHT22;3747;48.628;9.058;2023-08-07T03:35:53;10.10;99.90
7411;DHT22;3747;48.628;9.058;2023-08-07T03:38:21;10.10;99.90
7411;DHT22;3747;48.628;9.058;2023-08-07T03:40:47;10.00;99.90
7411;DHT22;3747;48.628;9.058;2023-08-07T03:43:14;10.10;99.90
7411;DHT22;3747;48.628;9.058;2023-08-07T03:45:41;10.00;99.90
7411;DHT22;3747;48.628;9.058;2023-08-07T03:48:08;10.10;99.90
7411;DHT22;3747;48.628;9.058;2023-08-07T03:50:35;10.10;99.90
7411;DHT22;3747;48.628;9.058;2023-08-07T03:53:03;10.00;99.90
7411;DHT22;3747;48.628;9.058;2023-08-07T03:55:34;10.00;99.90
7411;DHT22;3747;48.628;9.058;2023-08-07T03:58:00;10.00;99.90
7411;DHT22;3747;48.628;9.058;2023-08-07T04:00:27;9.90;99.90
7411;DHT22;3747;48.628;9.058;2023-08-07T04:02:54;9.90;99.90
7411;DHT22;3747;48.628;9.058;2023-08-07T04:05:20;9.80;99.90
7411;DHT22;3747;48.628;9.058;2023-08-07T04:07:47;9.80;99.90
7411;DHT22;3747;48.628;9.058;2023-08-07T04:10:14;9.80;99.90
7411;DHT22;3747;48.628;9.058;2023-08-07T04:12:42;9.80;99.90
7411;DHT22;3747;48.628;9.058;2023-08-07T04:15:09;9.70;99.90
7411;DHT22;3747;48.628;9.058;2023-08-07T04:17:36;9.70;99.90
7411;DHT22;3747;48.628;9.058;2023-08-07T04:20:03;9.70;99.90
7411;DHT22;3747;48.628;9.058;2023-08-07T04:22:31;9.60;99.90
7411;DHT22;3747;48.628;9.058;2023-08-07T04:24:57;9.60;99.90
7411;DHT22;3747;48.628;9.058;2023-08-07T04:27:25;9.50;99.90
7411;DHT22;3747;48.628;9.058;2023-08-07T04:29:53;9.50;99.90
7411;DHT22;3747;48.628;9.058;2023-08-07T04:32:20;9.40;99.90
7411;DHT22;3747;48.628;9.058;2023-08-07T04:34:47;9.40;99.90
7411;DHT22;3747;48.628;9.058;2023-08-07T04:37:13;9.30;99.90
7411;DHT22;3747;48.628;9.058;2023-08-07T04:39:40;9.30;99.90
7411;DHT22;3747;48.628;9.058;2023-08-07T04:42:07;9.30;99.90
7411;DHT22;3747;48.628;9.058;2023-08-07T04:44:33;9.20;99.90
7411;DHT22;3747;48.628;9.058;2023-08-07T04:47:01;9.20;99.90
7411;DHT22;3747;48.628;9.058;2023-08-07T04:49:28;9.30;99.90
7411;DHT22;3747;48.628;9.058;2023-08-07T04:51:55;9.20;99.90
7411;DHT22;3747;48.628;9.058;2023-08-07T04:54:21;9.30;99.90
7411;DHT22;3747;48.628;9.058;2023-08-07T04:56:48;9.30;99.90
7411;DHT22;3747;48.628;9.058;2023-08-07T04:59:15;9.40;99.90
7411;DHT22;3747;48.628;9.058;2023-08-07T05:01:41;9.40;99.90
7411;DHT22;3747;48.628;9.058;2023-08-07T05:04:09;9.50;99.90
7411;DHT22;3747;48.628;9.058;2023-08-07T05:06:36;9.50;99.90
7411;DHT22;3747;48.628;9.058;2023-08-07T05:09:03;9.50;99.90
7411;DHT22;3747;48.628;9.058;2023-08-07T05:11:30;9.50;99.90
7411;DHT22;3747;48.628;9.058;2023-08-07T05:13:56;9.40;99.90
7411;DHT22;3747;48.628;9.058;2023-08-07T05:16:23;9.50;99.90
7411;DHT22;3747;48.628;9.058;2023-08-07T05:18:50;9.50;99.90
7411;DHT22;3747;48.628;9.058;2023-08-07T05:21:18;9.50;99.90
7411;DHT22;3747;48.628;9.058;2023-08-07T05:23:45;9.50;99.90
7411;DHT22;3747;48.628;9.058;2023-08-07T05:26:13;9.60;99.90
7411;DHT22;3747;48.628;9.058;2023-08-07T05:28:39;9.70;99.90
7411;DHT22;3747;48.628;9.058;2023-08-07T05:31:06;9.80;99.90
7411;DHT22;3747;48.628;9.058;2023-08-07T05:33:33;9.90;99.90
7411;DHT22;3747;48.628;9.058;2023-08-07T05:35:59;10.00;99.90
7411;DHT22;3747;48.628;9.058;2023-08-07T05:38:27;10.10;99.90
7411;DHT22;3747;48.628;9.058;2023-08-07T05:40:54;10.30;99.90
7411;DHT22;3747;48.628;9.058;2023-08-07T05:43:21;10.50;99.90
7411;DHT22;3747;48.628;9.058;2023-08-07T05:45:48;10.60;99.90
7411;DHT22;3747;48.628;9.058;2023-08-07T05:48:15;10.70;99.90
7411;DHT22;3747;48.628;9.058;2023-08-07T05:50:42;10.80;99.90
7411;DHT22;3747;48.628;9.058;2023-08-07T05:53:09;11.00;99.90
7411;DHT22;3747;48.628;9.058;2023-08-07T05:55:39;11.00;99.90
7411;DHT22;3747;48.628;9.058;2023-08-07T05:58:06;11.10;99.90
7411;DHT22;3747;48.628;9.058;2023-08-07T06:00:33;11.20;99.90
7411;DHT22;3747;48.628;9.058;2023-08-07T06:03:00;11.20;99.90
7411;DHT22;3747;48.628;9.058;2023-08-07T06:05:27;11.30;99.90
7411;DHT22;3747;48.628;9.058;2023-08-07T06:07:54;11.20;99.90
7411;DHT22;3747;48.628;9.058;2023-08-07T06:10:20;11.30;99.90
7411;DHT22;3747;48.628;9.058;2023-08-07T06:12:48;11.30;99.90
7411;DHT22;3747;48.628;9.058;2023-08-07T06:15:15;11.30;99.90
7411;DHT22;3747;48.628;9.058;2023-08-07T06:17:42;11.30;99.90
7411;DHT22;3747;48.628;9.058;2023-08-07T06:20:09;11.30;99.90
7411;DHT22;3747;48.628;9.058;2023-08-07T06:22:37;11.40;99.90
7411;DHT22;3747;48.628;9.058;2023-08-07T06:25:04;11.40;99.90
7411;DHT22;3747;48.628;9.058;2023-08-07T06:27:32;11.40;99.90
7411;DHT22;3747;48.628;9.058;2023-08-07T06:30:00;11.40;99.90
7411;DHT22;3747;48.628;9.058;2023-08-07T06:32:27;11.50;99.90
7411;DHT22;3747;48.628;9.058;2023-08-07T06:34:54;11.60;99.90
7411;DHT22;3747;48.628;9.058;2023-08-07T06:37:20;11.60;99.90
7411;DHT22;3747;48.628;9.058;2023-08-07T06:39:47;11.70;99.90
7411;DHT22;3747;48.628;9.058;2023-08-07T06:42:14;11.70;99.90
7411;DHT22;3747;48.628;9.058;2023-08-07T06:44:40;11.80;99.90
7411;DHT22;3747;48.628;9.058;2023-08-07T06:47:09;11.90;99.90
7411;DHT22;3747;48.628;9.058;2023-08-07T06:49:35;11.90;99.90
7411;DHT22;3747;48.628;9.058;2023-08-07T06:52:03;11.80;99.90
7411;DHT22;3747;48.628;9.058;2023-08-07T06:54:30;11.90;99.90
7411;DHT22;3747;48.628;9.058;2023-08-07T06:56:56;11.90;99.90
7411;DHT22;3747;48.628;9.058;2023-08-07T06:59:23;12.00;99.90
7411;DHT22;3747;48.628;9.058;2023-08-07T07:01:50;12.20;99.90
7411;DHT22;3747;48.628;9.058;2023-08-07T07:04:18;12.30;99.90
7411;DHT22;3747;48.628;9.058;2023-08-07T07:06:52;12.30;99.90
7411;DHT22;3747;48.628;9.058;2023-08-07T07:09:18;12.30;99.90
7411;DHT22;3747;48.628;9.058;2023-08-07T07:11:45;12.20;99.90
7411;DHT22;3747;48.628;9.058;2023-08-07T07:14:12;12.30;99.90
7411;DHT22;3747;48.628;9.058;2023-08-07T07:16:38;12.30;99.90
7411;DHT22;3747;48.628;9.058;2023-08-07T07:19:07;12.50;99.90
7411;DHT22;3747;48.628;9.058;2023-08-07T07:21:36;12.70;99.90
7411;DHT22;3747;48.628;9.058;2023-08-07T07:24:03;12.80;99.90
7411;DHT22;3747;48.628;9.058;2023-08-07T07:26:30;12.90;99.90
7411;DHT22;3747;48.628;9.058;2023-08-07T07:28:57;13.20;99.90
7411;DHT22;3747;48.628;9.058;2023-08-07T07:31:23;13.80;99.90
7411;DHT22;3747;48.628;9.058;2023-08-07T07:33:50;14.30;99.90
7411;DHT22;3747;48.628;9.058;2023-08-07T07:36:18;14.60;99.90
7411;DHT22;3747;48.628;9.058;2023-08-07T07:38:47;14.50;99.90
7411;DHT22;3747;48.628;9.058;2023-08-07T07:41:14;14.70;99.90
7411;DHT22;3747;48.628;9.058;2023-08-07T07:43:41;14.30;99.90
7411;DHT22;3747;48.628;9.058;2023-08-07T07:46:08;14.20;99.90
7411;DHT22;3747;48.628;9.058;2023-08-07T07:48:34;14.50;99.90
7411;DHT22;3747;48.628;9.058;2023-08-07T07:51:02;14.50;99.90
7411;DHT22;3747;48.628;9.058;2023-08-07T07:53:29;14.40;99.90
7411;DHT22;3747;48.628;9.058;2023-08-07T07:55:57;14.80;99.90
7411;DHT22;3747;48.628;9.058;2023-08-07T07:58:24;15.20;99.90
7411;DHT22;3747;48.628;9.058;2023-08-07T08:00:51;14.80;99.90
7411;DHT22;3747;48.628;9.058;2023-08-07T08:03:19;14.90;99.90
7411;DHT22;3747;48.628;9.058;2023-08-07T08:05:49;15.20;99.90
7411;DHT22;3747;48.628;9.058;2023-08-07T08:08:16;15.00;99.90
7411;DHT22;3747;48.628;9.058;2023-08-07T08:10:43;15.00;99.90
7411;DHT22;3747;48.628;9.058;2023-08-07T08:13:11;15.60;99.90
7411;DHT22;3747;48.628;9.058;2023-08-07T08:15:38;16.00;99.90
7411;DHT22;3747;48.628;9.058;2023-08-07T08:18:05;16.20;99.90
7411;DHT22;3747;48.628;9.058;2023-08-07T08:20:31;15.70;99.90
7411;DHT22;3747;48.628;9.058;2023-08-07T08:22:58;15.70;99.90
7411;DHT22;3747;48.628;9.058;2023-08-07T08:25:25;15.70;99.90
7411;DHT22;3747;48.628;9.058;2023-08-07T08:27:52;15.20;99.90
7411;DHT22;3747;48.628;9.058;2023-08-07T08:30:28;15.60;99.90
7411;DHT22;3747;48.628;9.058;2023-08-07T08:32:55;16.10;99.90
7411;DHT22;3747;48.628;9.058;2023-08-07T08:35:23;15.80;99.90
7411;DHT22;3747;48.628;9.058;2023-08-07T08:37:49;15.70;99.90
7411;DHT22;3747;48.628;9.058;2023-08-07T08:40:16;16.10;99.90
7411;DHT22;3747;48.628;9.058;2023-08-07T08:42:45;16.00;99.90
7411;DHT22;3747;48.628;9.058;2023-08-07T08:45:13;16.10;99.90
7411;DHT22;3747;48.628;9.058;2023-08-07T08:47:42;15.80;99.90
7411;DHT22;3747;48.628;9.058;2023-08-07T08:50:12;16.10;99.90
7411;DHT22;3747;48.628;9.058;2023-08-07T08:52:43;16.50;99.90
7411;DHT22;3747;48.628;9.058;2023-08-07T08:55:10;16.60;99.90
7411;DHT22;3747;48.628;9.058;2023-08-07T08:57:38;16.30;99.90
7411;DHT22;3747;48.628;9.058;2023-08-07T09:00:18;15.60;99.90
7411;DHT22;3747;48.628;9.058;2023-08-07T09:02:48;15.10;99.90
7411;DHT22;3747;48.628;9.058;2023-08-07T09:05:17;15.20;99.90
7411;DHT22;3747;48.628;9.058;2023-08-07T09:07:47;15.50;99.90
7411;DHT22;3747;48.628;9.058;2023-08-07T09:10:14;15.70;99.90
7411;DHT22;3747;48.628;9.058;2023-08-07T09:12:45;16.20;99.90
7411;DHT22;3747;48.628;9.058;2023-08-07T09:15:16;16.80;99.90
7411;DHT22;3747;48.628;9.058;2023-08-07T09:17:44;17.30;99.90
7411;DHT22;3747;48.628;9.058;2023-08-07T09:20:13;16.70;99.90
7411;DHT22;3747;48.628;9.058;2023-08-07T09:22:40;15.90;99.90
7411;DHT22;3747;48.628;9.058;2023-08-07T09:25:08;16.40;99.90
7411;DHT22;3747;48.628;9.058;2023-08-07T09:27:36;17.20;99.90
7411;DHT22;3747;48.628;9.058;2023-08-07T09:30:05;16.90;99.90
7411;DHT22;3747;48.628;9.058;2023-08-07T09:32:33;16.70;99.90
7411;DHT22;3747;48.628;9.058;2023-08-07T09:35:02;16.30;99.90
7411;DHT22;3747;48.628;9.058;2023-08-07T09:37:31;15.90;99.90
7411;DHT22;3747;48.628;9.058;2023-08-07T09:40:06;16.40;99.90
7411;DHT22;3747;48.628;9.058;2023-08-07T09:42:36;16.70;99.90
7411;DHT22;3747;48.628;9.058;2023-08-07T09:45:19;16.80;99.90
7411;DHT22;3747;48.628;9.058;2023-08-07T09:47:46;16.00;99.90
7411;DHT22;3747;48.628;9.058;2023-08-07T09:50:15;15.80;99.90
7411;DHT22;3747;48.628;9.058;2023-08-07T09:52:48;15.60;99.90
7411;DHT22;3747;48.628;9.058;2023-08-07T09:55:14;15.70;99.90
7411;DHT22;3747;48.628;9.058;2023-08-07T09:57:42;16.10;99.90
7411;DHT22;3747;48.628;9.058;2023-08-07T10:00:10;16.20;99.90
7411;DHT22;3747;48.628;9.058;2023-08-07T10:02:40;16.20;99.90
7411;DHT22;3747;48.628;9.058;2023-08-07T10:05:07;16.00;99.90
7411;DHT22;3747;48.628;9.058;2023-08-07T10:07:34;15.90;99.90
7411;DHT22;3747;48.628;9.058;2023-08-07T10:10:03;16.10;99.90
7411;DHT22;3747;48.628;9.058;2023-08-07T10:12:30;16.20;99.90
7411;DHT22;3747;48.628;9.058;2023-08-07T10:14:57;16.00;99.90
7411;DHT22;3747;48.628;9.058;2023-08-07T10:17:25;15.60;99.90
7411;DHT22;3747;48.628;9.058;2023-08-07T10:19:53;15.60;99.90
7411;DHT22;3747;48.628;9.058;2023-08-07T10:22:20;15.40;99.90
7411;DHT22;3747;48.628;9.058;2023-08-07T10:24:50;15.90;99.90
7411;DHT22;3747;48.628;9.058;2023-08-07T10:27:21;16.00;99.90
7411;DHT22;3747;48.628;9.058;2023-08-07T10:29:50;15.80;99.90
7411;DHT22;3747;48.628;9.058;2023-08-07T10:32:20;16.40;99.90
7411;DHT22;3747;48.628;9.058;2023-08-07T10:34:47;16.60;99.90
7411;DHT22;3747;48.628;9.058;2023-08-07T10:37:32;17.50;99.90
7411;DHT22;3747;48.628;9.058;2023-08-07T10:40:05;18.10;99.90
7411;DHT22;3747;48.628;9.058;2023-08-07T10:42:52;17.90;99.90
7411;DHT22;3747;48.628;9.058;2023-08-07T10:45:19;17.50;99.90
7411;DHT22;3747;48.628;9.058;2023-08-07T10:47:57;17.50;99.90
7411;DHT22;3747;48.628;9.058;2023-08-07T10:50:28;18.00;99.90
7411;DHT22;3747;48.628;9.058;2023-08-07T10:52:55;17.60;99.90
7411;DHT22;3747;48.628;9.058;2023-08-07T10:55:22;16.90;99.90
7411;DHT22;3747;48.628;9.058;2023-08-07T10:57:50;16.10;99.90
7411;DHT22;3747;48.628;9.058;2023-08-07T11:00:25;15.60;99.90
7411;DHT22;3747;48.628;9.058;2023-08-07T11:02:52;15.40;99.90
7411;DHT22;3747;48.628;9.058;2023-08-07T11:05:19;15.40;99.90
7411;DHT22;3747;48.628;9.058;2023-08-07T11:07:47;15.80;99.90
7411;DHT22;3747;48.628;9.058;2023-08-07T11:10:14;16.20;99.90
7411;DHT22;3747;48.628;9.058;2023-08-07T11:12:44;16.70;99.90
7411;DHT22;3747;48.628;9.058;2023-08-07T11:15:15;16.80;99.90
7411;DHT22;3747;48.628;9.058;2023-08-07T11:17:43;16.60;99.90
7411;DHT22;3747;48.628;9.058;2023-08-07T11:20:11;16.40;99.90
7411;DHT22;3747;48.628;9.058;2023-08-07T11:22:38;16.30;99.90
7411;DHT22;3747;48.628;9.058;2023-08-07T11:25:07;16.00;99.90
7411;DHT22;3747;48.628;9.058;2023-08-07T11:27:39;15.90;99.90
7411;DHT22;3747;48.628;9.058;2023-08-07T11:30:11;16.00;99.90
7411;DHT22;3747;48.628;9.058;2023-08-07T11:32:38;16.00;99.90
7411;DHT22;3747;48.628;9.058;2023-08-07T11:35:07;15.90;99.90
7411;DHT22;3747;48.628;9.058;2023-08-07T11:37:35;15.80;99.90
7411;DHT22;3747;48.628;9.058;2023-08-07T11:40:02;15.70;99.90
7411;DHT22;3747;48.628;9.058;2023-08-07T11:42:29;15.90;99.90
7411;DHT22;3747;48.628;9.058;2023-08-07T11:44:56;16.20;99.90
7411;DHT22;3747;48.628;9.058;2023-08-07T11:47:22;16.50;99.90
7411;DHT22;3747;48.628;9.058;2023-08-07T11:49:52;16.40;99.90
7411;DHT22;3747;48.628;9.058;2023-08-07T11:52:20;15.80;99.90
7411;DHT22;3747;48.628;9.058;2023-08-07T11:54:48;15.30;99.90
7411;DHT22;3747;48.628;9.058;2023-08-07T11:57:16;15.20;99.90
7411;DHT22;3747;48.628;9.058;2023-08-07T11:59:46;14.90;99.90
7411;DHT22;3747;48.628;9.058;2023-08-07T12:02:13;14.90;99.90
7411;DHT22;3747;48.628;9.058;2023-08-07T12:04:40;14.80;99.90
7411;DHT22;3747;48.628;9.058;2023-08-07T12:07:07;14.80;99.90
7411;DHT22;3747;48.628;9.058;2023-08-07T12:09:37;14.90;99.90
7411;DHT22;3747;48.628;9.058;2023-08-07T12:12:06;14.80;99.90
7411;DHT22;3747;48.628;9.058;2023-08-07T12:14:33;14.70;99.90
7411;DHT22;3747;48.628;9.058;2023-08-07T12:17:01;14.60;99.90
7411;DHT22;3747;48.628;9.058;2023-08-07T12:19:36;14.50;99.90
7411;DHT22;3747;48.628;9.058;2023-08-07T12:22:06;14.40;99.90
7411;DHT22;3747;48.628;9.058;2023-08-07T12:24:34;14.40;99.90
7411;DHT22;3747;48.628;9.058;2023-08-07T12:27:02;14.30;99.90
7411;DHT22;3747;48.628;9.058;2023-08-07T12:29:29;14.30;99.90
7411;DHT22;3747;48.628;9.058;2023-08-07T12:31:56;14.30;99.90
7411;DHT22;3747;48.628;9.058;2023-08-07T12:34:24;14.50;99.90
7411;DHT22;3747;48.628;9.058;2023-08-07T12:36:51;14.80;99.90
7411;DHT22;3747;48.628;9.058;2023-08-07T12:39:18;15.00;99.90
7411;DHT22;3747;48.628;9.058;2023-08-07T12:41:46;15.10;99.90
7411;DHT22;3747;48.628;9.058;2023-08-07T12:44:15;15.30;99.90
7411;DHT22;3747;48.628;9.058;2023-08-07T12:46:42;15.40;99.90
7411;DHT22;3747;48.628;9.058;2023-08-07T12:49:09;15.30;99.90
7411;DHT22;3747;48.628;9.058;2023-08-07T12:51:36;15.10;99.90
7411;DHT22;3747;48.628;9.058;2023-08-07T12:54:02;14.60;99.90
7411;DHT22;3747;48.628;9.058;2023-08-07T12:56:29;14.50;99.90
7411;DHT22;3747;48.628;9.058;2023-08-07T12:58:56;14.40;99.90
7411;DHT22;3747;48.628;9.058;2023-08-07T13:01:24;14.30;99.90
7411;DHT22;3747;48.628;9.058;2023-08-07T13:03:52;14.30;99.90
7411;DHT22;3747;48.628;9.058;2023-08-07T13:06:18;14.00;99.90
7411;DHT22;3747;48.628;9.058;2023-08-07T13:08:45;14.00;99.90
7411;DHT22;3747;48.628;9.058;2023-08-07T13:11:12;14.20;99.90
7411;DHT22;3747;48.628;9.058;2023-08-07T13:13:39;14.50;99.90
7411;DHT22;3747;48.628;9.058;2023-08-07T13:16:06;15.00;99.90
7411;DHT22;3747;48.628;9.058;2023-08-07T13:18:34;15.70;99.90
7411;DHT22;3747;48.628;9.058;2023-08-07T13:21:00;16.30;99.90
7411;DHT22;3747;48.628;9.058;2023-08-07T13:23:27;16.60;99.90
7411;DHT22;3747;48.628;9.058;2023-08-07T13:25:54;16.90;99.90
7411;DHT22;3747;48.628;9.058;2023-08-07T13:28:21;17.50;99.90
7411;DHT22;3747;48.628;9.058;2023-08-07T13:30:49;17.50;99.90
7411;DHT22;3747;48.628;9.058;2023-08-07T13:33:16;17.00;99.90
7411;DHT22;3747;48.628;9.058;2023-08-07T13:35:46;16.60;99.90
7411;DHT22;3747;48.628;9.058;2023-08-07T13:38:13;16.40;99.90
7411;DHT22;3747;48.628;9.058;2023-08-07T13:40:41;16.10;99.90
7411;DHT22;3747;48.628;9.058;2023-08-07T13:43:09;15.80;99.90
7411;DHT22;3747;48.628;9.058;2023-08-07T13:45:36;15.70;99.90
7411;DHT22;3747;48.628;9.058;2023-08-07T13:48:03;16.10;99.90
7411;DHT22;3747;48.628;9.058;2023-08-07T13:50:31;16.60;99.90
7411;DHT22;3747;48.628;9.058;2023-08-07T13:52:59;17.10;99.90
7411;DHT22;3747;48.628;9.058;2023-08-07T13:55:26;17.70;99.90
7411;DHT22;3747;48.628;9.058;2023-08-07T13:57:56;18.60;99.90
7411;DHT22;3747;48.628;9.058;2023-08-07T14:00:22;20.20;99.90
7411;DHT22;3747;48.628;9.058;2023-08-07T14:02:49;21.20;99.90
7411;DHT22;3747;48.628;9.058;2023-08-07T14:05:16;20.50;99.90
7411;DHT22;3747;48.628;9.058;2023-08-07T14:07:42;19.40;99.90
7411;DHT22;3747;48.628;9.058;2023-08-07T14:10:11;19.70;99.90
7411;DHT22;3747;48.628;9.058;2023-08-07T14:12:37;20.10;99.90
7411;DHT22;3747;48.628;9.058;2023-08-07T14:15:13;20.70;99.90
7411;DHT22;3747;48.628;9.058;2023-08-07T14:17:40;20.00;99.90
7411;DHT22;3747;48.628;9.058;2023-08-07T14:20:08;19.40;99.90
7411;DHT22;3747;48.628;9.058;2023-08-07T14:22:36;18.60;99.90
7411;DHT22;3747;48.628;9.058;2023-08-07T14:25:04;18.30;99.90
7411;DHT22;3747;48.628;9.058;2023-08-07T14:27:32;18.10;99.90
7411;DHT22;3747;48.628;9.058;2023-08-07T14:30:00;18.10;99.90
7411;DHT22;3747;48.628;9.058;2023-08-07T14:32:26;18.10;99.90
7411;DHT22;3747;48.628;9.058;2023-08-07T14:34:53;17.80;99.90
7411;DHT22;3747;48.628;9.058;2023-08-07T14:37:20;17.40;99.90
7411;DHT22;3747;48.628;9.058;2023-08-07T14:39:46;17.20;99.90
7411;DHT22;3747;48.628;9.058;2023-08-07T14:42:13;16.90;99.90
7411;DHT22;3747;48.628;9.058;2023-08-07T14:44:41;16.90;99.90
7411;DHT22;3747;48.628;9.058;2023-08-07T14:47:08;16.70;99.90
7411;DHT22;3747;48.628;9.058;2023-08-07T14:49:35;16.60;99.90
7411;DHT22;3747;48.628;9.058;2023-08-07T14:52:02;16.60;99.90
7411;DHT22;3747;48.628;9.058;2023-08-07T14:54:28;16.40;99.90
7411;DHT22;3747;48.628;9.058;2023-08-07T14:56:55;16.30;99.90
7411;DHT22;3747;48.628;9.058;2023-08-07T14:59:24;16.20;99.90
7411;DHT22;3747;48.628;9.058;2023-08-07T15:01:52;16.20;99.90
7411;DHT22;3747;48.628;9.058;2023-08-07T15:04:18;16.10;99.90
7411;DHT22;3747;48.628;9.058;2023-08-07T15:06:45;16.00;99.90
7411;DHT22;3747;48.628;9.058;2023-08-07T15:09:13;16.00;99.90
7411;DHT22;3747;48.628;9.058;2023-08-07T15:11:40;16.10;99.90
7411;DHT22;3747;48.628;9.058;2023-08-07T15:14:07;16.20;99.90
7411;DHT22;3747;48.628;9.058;2023-08-07T15:16:33;16.30;99.90
7411;DHT22;3747;48.628;9.058;2023-08-07T15:19:02;16.50;99.90
7411;DHT22;3747;48.628;9.058;2023-08-07T15:21:29;16.70;99.90
7411;DHT22;3747;48.628;9.058;2023-08-07T15:23:55;16.90;99.90
7411;DHT22;3747;48.628;9.058;2023-08-07T15:26:22;17.10;99.90
7411;DHT22;3747;48.628;9.058;2023-08-07T15:28:49;17.80;99.90
7411;DHT22;3747;48.628;9.058;2023-08-07T15:31:16;19.30;99.90
7411;DHT22;3747;48.628;9.058;2023-08-07T15:33:42;19.80;99.90
7411;DHT22;3747;48.628;9.058;2023-08-07T15:36:16;20.60;99.90
7411;DHT22;3747;48.628;9.058;2023-08-07T15:38:42;22.30;99.90
7411;DHT22;3747;48.628;9.058;2023-08-07T15:41:10;22.20;99.90
7411;DHT22;3747;48.628;9.058;2023-08-07T15:43:37;21.90;99.90
7411;DHT22;3747;48.628;9.058;2023-08-07T15:46:04;21.20;99.90
7411;DHT22;3747;48.628;9.058;2023-08-07T15:48:31;19.80;99.90
7411;DHT22;3747;48.628;9.058;2023-08-07T15:50:57;18.30;99.90
7411;DHT22;3747;48.628;9.058;2023-08-07T15:53:26;17.80;99.90
7411;DHT22;3747;48.628;9.058;2023-08-07T15:55:52;17.50;99.90
7411;DHT22;3747;48.628;9.058;2023-08-07T15:58:19;17.30;99.90
7411;DHT22;3747;48.628;9.058;2023-08-07T16:00:48;17.20;99.90
7411;DHT22;3747;48.628;9.058;2023-08-07T16:03:15;17.20;99.90
7411;DHT22;3747;48.628;9.058;2023-08-07T16:05:43;17.20;99.90
7411;DHT22;3747;48.628;9.058;2023-08-07T16:08:10;17.10;99.90